sensor_id;sensor_type;location;lat;lon;timestamp;temperature;humidity
16643;DHT22;8435;52.184;5.406;2022-11-20T00:02:05;0.90;99.20
16643;DHT22;8435;52.184;5.406;2022-11-20T00:04:31;1.00;99.20
16643;DHT22;8435;52.184;5.406;2022-11-20T00:06:58;0.90;99.20
16643;DHT22;8435;52.184;5.406;2022-11-20T00:09:25;0.90;99.30
16643;DHT22;8435;52.184;5.406;2022-11-20T00:11:51;0.90;99.30
16643;DHT22;8435;52.184;5.406;2022-11-20T00:14:19;0.90;99.30
16643;DHT22;8435;52.184;5.406;2022-11-20T00:16:47;0.90;99.30
16643;DHT22;8435;52.184;5.406;2022-11-20T00:19:14;0.90;99.30
16643;DHT22;8435;52.184;5.406;2022-11-20T00:21:40;0.90;99.30
16643;DHT22;8435;52.184;5.406;2022-11-20T00:24:08;0.80;99.30
16643;DHT22;8435;52.184;5.406;2022-11-20T00:26:35;0.80;99.40
16643;DHT22;8435;52.184;5.406;2022-11-20T00:29:02;0.80;99.40
16643;DHT22;8435;52.184;5.406;2022-11-20T00:31:30;0.80;99.40
16643;DHT22;8435;52.184;5.406;2022-11-20T00:33:59;0.80;99.50
16643;DHT22;8435;52.184;5.406;2022-11-20T00:36:28;0.80;99.50
16643;DHT22;8435;52.184;5.406;2022-11-20T00:38:57;0.70;99.50
16643;DHT22;8435;52.184;5.406;2022-11-20T00:41:24;0.70;99.50
16643;DHT22;8435;52.184;5.406;2022-11-20T00:43:52;0.70;99.60
16643;DHT22;8435;52.184;5.406;2022-11-20T00:46:21;0.70;99.60
16643;DHT22;8435;52.184;5.406;2022-11-20T00:48:48;0.70;99.60
16643;DHT22;8435;52.184;5.406;2022-11-20T00:51:20;0.70;99.60
16643;DHT22;8435;52.184;5.406;2022-11-20T00:53:47;0.70;99.60
16643;DHT22;8435;52.184;5.406;2022-11-20T00:56:18;0.70;99.60
16643;DHT22;8435;52.184;5.406;2022-11-20T00:58:48;0.70;99.70
16643;DHT22;8435;52.184;5.406;2022-11-20T01:01:16;0.60;99.70
16643;DHT22;8435;52.184;5.406;2022-11-20T01:03:48;0.60;99.70
16643;DHT22;8435;52.184;5.406;2022-11-20T01:06:17;0.60;99.70
16643;DHT22;8435;52.184;5.406;2022-11-20T01:08:46;0.60;99.70
16643;DHT22;8435;52.184;5.406;2022-11-20T01:11:15;0.60;99.70
16643;DHT22;8435;52.184;5.406;2022-11-20T01:13:44;0.60;99.80
16643;DHT22;8435;52.184;5.406;2022-11-20T01:16:13;0.50;99.70
16643;DHT22;8435;52.184;5.406;2022-11-20T01:18:41;0.50;99.70
16643;DHT22;8435;52.184;5.406;2022-11-20T01:21:10;0.50;99.70
16643;DHT22;8435;52.184;5.406;2022-11-20T01:23:39;0.50;99.80
16643;DHT22;8435;52.184;5.406;2022-11-20T01:26:09;0.50;99.80
16643;DHT22;8435;52.184;5.406;2022-11-20T01:28:38;0.50;99.80
16643;DHT22;8435;52.184;5.406;2022-11-20T01:31:11;0.40;99.80
16643;DHT22;8435;52.184;5.406;2022-11-20T01:33:39;0.50;99.80
16643;DHT22;8435;52.184;5.406;2022-11-20T01:36:07;0.50;99.80
16643;DHT22;8435;52.184;5.406;2022-11-20T01:38:34;0.40;99.80
16643;DHT22;8435;52.184;5.406;2022-11-20T01:41:01;0.40;99.90
16643;DHT22;8435;52.184;5.406;2022-11-20T01:43:31;0.40;99.80
16643;DHT22;8435;52.184;5.406;2022-11-20T01:46:00;0.40;99.80
16643;DHT22;8435;52.184;5.406;2022-11-20T01:48:32;0.40;99.80
16643;DHT22;8435;52.184;5.406;2022-11-20T01:51:00;0.40;99.90
16643;DHT22;8435;52.184;5.406;2022-11-20T01:53:30;0.40;99.80
16643;DHT22;8435;52.184;5.406;2022-11-20T01:56:00;0.40;99.80
16643;DHT22;8435;52.184;5.406;2022-11-20T01:58:32;0.40;99.80
16643;DHT22;8435;52.184;5.406;2022-11-20T02:00:59;0.40;99.80
16643;DHT22;8435;52.184;5.406;2022-11-20T02:03:26;0.30;99.80
16643;DHT22;8435;52.184;5.406;2022-11-20T02:05:57;0.30;99.80
16643;DHT22;8435;52.184;5.406;2022-11-20T02:08:28;0.30;99.80
16643;DHT22;8435;52.184;5.406;2022-11-20T02:10:55;0.30;99.80
16643;DHT22;8435;52.184;5.406;2022-11-20T02:13:21;0.30;99.80
16643;DHT22;8435;52.184;5.406;2022-11-20T02:16:21;0.30;99.80
16643;DHT22;8435;52.184;5.406;2022-11-20T02:18:48;0.20;99.80
16643;DHT22;8435;52.184;5.406;2022-11-20T02:21:24;0.20;99.80
16643;DHT22;8435;52.184;5.406;2022-11-20T02:24:02;0.30;99.80
16643;DHT22;8435;52.184;5.406;2022-11-20T02:26:31;0.20;99.80
16643;DHT22;8435;52.184;5.406;2022-11-20T02:29:00;0.10;99.80
16643;DHT22;8435;52.184;5.406;2022-11-20T02:31:28;0.20;99.90
16643;DHT22;8435;52.184;5.406;2022-11-20T02:33:56;0.20;99.90
16643;DHT22;8435;52.184;5.406;2022-11-20T02:36:24;0.20;99.90
16643;DHT22;8435;52.184;5.406;2022-11-20T02:38:52;0.20;99.90
16643;DHT22;8435;52.184;5.406;2022-11-20T02:41:31;0.10;99.90
16643;DHT22;8435;52.184;5.406;2022-11-20T02:43:57;0.10;99.90
16643;DHT22;8435;52.184;5.406;2022-11-20T02:46:24;0.10;99.90
16643;DHT22;8435;52.184;5.406;2022-11-20T02:48:51;0.10;99.90
16643;DHT22;8435;52.184;5.406;2022-11-20T02:51:18;0.10;99.90
16643;DHT22;8435;52.184;5.406;2022-11-20T02:53:45;0.10;99.90
16643;DHT22;8435;52.184;5.406;2022-11-20T02:56:12;0.10;99.90
16643;DHT22;8435;52.184;5.406;2022-11-20T02:58:40;0.10;99.90
16643;DHT22;8435;52.184;5.406;2022-11-20T03:01:10;0.10;99.90
16643;DHT22;8435;52.184;5.406;2022-11-20T03:03:36;0.00;99.90
16643;DHT22;8435;52.184;5.406;2022-11-20T03:06:03;0.00;99.90
16643;DHT22;8435;52.184;5.406;2022-11-20T03:08:30;0.00;99.90
16643;DHT22;8435;52.184;5.406;2022-11-20T03:11:01;0.00;99.90
16643;DHT22;8435;52.184;5.406;2022-11-20T03:13:28;0.00;99.90
16643;DHT22;8435;52.184;5.406;2022-11-20T03:15:56;0.00;99.90
16643;DHT22;8435;52.184;5.406;2022-11-20T03:18:23;-0.10;99.90
16643;DHT22;8435;52.184;5.406;2022-11-20T03:20:49;-0.10;99.90
16643;DHT22;8435;52.184;5.406;2022-11-20T03:23:16;-0.10;99.90
16643;DHT22;8435;52.184;5.406;2022-11-20T03:25:43;-0.10;99.90
16643;DHT22;8435;52.184;5.406;2022-11-20T03:28:13;-0.10;99.90
16643;DHT22;8435;52.184;5.406;2022-11-20T03:30:40;-0.10;99.90
16643;DHT22;8435;52.184;5.406;2022-11-20T03:33:08;-0.20;99.90
16643;DHT22;8435;52.184;5.406;2022-11-20T03:35:34;-0.20;99.90
16643;DHT22;8435;52.184;5.406;2022-11-20T03:38:01;-0.20;99.90
16643;DHT22;8435;52.184;5.406;2022-11-20T03:40:30;-0.20;99.90
16643;DHT22;8435;52.184;5.406;2022-11-20T03:42:57;-0.20;99.90
16643;DHT22;8435;52.184;5.406;2022-11-20T03:45:23;-0.20;99.90
16643;DHT22;8435;52.184;5.406;2022-11-20T03:47:50;-0.20;99.90
16643;DHT22;8435;52.184;5.406;2022-11-20T03:50:18;-0.20;99.90
16643;DHT22;8435;52.184;5.406;2022-11-20T03:52:45;-0.20;99.90
16643;DHT22;8435;52.184;5.406;2022-11-20T03:55:12;-0.30;99.90
16643;DHT22;8435;52.184;5.406;2022-11-20T03:57:38;-0.30;99.90
16643;DHT22;8435;52.184;5.406;2022-11-20T04:00:06;-0.30;99.90
16643;DHT22;8435;52.184;5.406;2022-11-20T04:02:33;-0.30;99.90
16643;DHT22;8435;52.184;5.406;2022-11-20T04:05:00;-0.30;99.90
16643;DHT22;8435;52.184;5.406;2022-11-20T04:07:28;-0.30;99.90
16643;DHT22;8435;52.184;5.406;2022-11-20T04:09:54;-0.30;99.90
16643;DHT22;8435;52.184;5.406;2022-11-20T04:12:23;-0.30;99.90
16643;DHT22;8435;52.184;5.406;2022-11-20T04:14:51;-0.40;99.90
16643;DHT22;8435;52.184;5.406;2022-11-20T04:17:18;-0.30;99.90
16643;DHT22;8435;52.184;5.406;2022-11-20T04:19:45;-0.40;99.90
16643;DHT22;8435;52.184;5.406;2022-11-20T04:22:11;-0.40;99.90
16643;DHT22;8435;52.184;5.406;2022-11-20T04:24:40;-0.40;99.90
16643;DHT22;8435;52.184;5.406;2022-11-20T04:27:06;-0.40;99.90
16643;DHT22;8435;52.184;5.406;2022-11-20T04:29:33;-0.40;99.90
16643;DHT22;8435;52.184;5.406;2022-11-20T04:32:00;-0.40;99.90
16643;DHT22;8435;52.184;5.406;2022-11-20T04:34:29;-0.50;99.90
16643;DHT22;8435;52.184;5.406;2022-11-20T04:36:58;-0.50;99.90
16643;DHT22;8435;52.184;5.406;2022-11-20T04:39:25;-0.50;99.90
16643;DHT22;8435;52.184;5.406;2022-11-20T04:41:53;-0.50;99.90
16643;DHT22;8435;52.184;5.406;2022-11-20T04:44:43;-0.50;99.90
16643;DHT22;8435;52.184;5.406;2022-11-20T04:47:13;-0.50;99.90
16643;DHT22;8435;52.184;5.406;2022-11-20T04:49:40;-0.50;99.90
16643;DHT22;8435;52.184;5.406;2022-11-20T04:52:06;-0.60;99.90
16643;DHT22;8435;52.184;5.406;2022-11-20T04:54:33;-0.60;99.90
16643;DHT22;8435;52.184;5.406;2022-11-20T04:57:01;-0.60;99.90
16643;DHT22;8435;52.184;5.406;2022-11-20T04:59:28;-0.60;99.90
16643;DHT22;8435;52.184;5.406;2022-11-20T05:01:58;-0.60;99.90
16643;DHT22;8435;52.184;5.406;2022-11-20T05:04:24;-0.60;99.90
16643;DHT22;8435;52.184;5.406;2022-11-20T05:06:51;-0.70;99.90
16643;DHT22;8435;52.184;5.406;2022-11-20T05:09:18;-0.70;99.90
16643;DHT22;8435;52.184;5.406;2022-11-20T05:11:44;-0.70;99.90
16643;DHT22;8435;52.184;5.406;2022-11-20T05:14:13;-0.70;99.90
16643;DHT22;8435;52.184;5.406;2022-11-20T05:16:40;-0.70;99.90
16643;DHT22;8435;52.184;5.406;2022-11-20T05:19:07;-0.80;99.90
16643;DHT22;8435;52.184;5.406;2022-11-20T05:21:33;-0.80;99.90
16643;DHT22;8435;52.184;5.406;2022-11-20T05:24:00;-0.80;99.90
16643;DHT22;8435;52.184;5.406;2022-11-20T05:26:27;-0.80;99.90
16643;DHT22;8435;52.184;5.406;2022-11-20T05:28:54;-0.80;99.90
16643;DHT22;8435;52.184;5.406;2022-11-20T05:31:25;-0.80;99.90
16643;DHT22;8435;52.184;5.406;2022-11-20T05:33:52;-0.80;99.90
16643;DHT22;8435;52.184;5.406;2022-11-20T05:36:19;-0.80;99.90
16643;DHT22;8435;52.184;5.406;2022-11-20T05:38:46;-0.80;99.90
16643;DHT22;8435;52.184;5.406;2022-11-20T05:41:14;-0.90;99.90
16643;DHT22;8435;52.184;5.406;2022-11-20T05:43:44;-0.90;99.90
16643;DHT22;8435;52.184;5.406;2022-11-20T05:46:13;-0.90;99.90
16643;DHT22;8435;52.184;5.406;2022-11-20T05:48:43;-0.90;99.90
16643;DHT22;8435;52.184;5.406;2022-11-20T05:51:12;-0.90;99.90
16643;DHT22;8435;52.184;5.406;2022-11-20T05:53:39;-1.00;99.90
16643;DHT22;8435;52.184;5.406;2022-11-20T05:56:07;-1.00;99.90
16643;DHT22;8435;52.184;5.406;2022-11-20T05:58:36;-1.00;99.90
16643;DHT22;8435;52.184;5.406;2022-11-20T06:01:05;-1.00;99.90
16643;DHT22;8435;52.184;5.406;2022-11-20T06:03:32;-1.00;99.90
16643;DHT22;8435;52.184;5.406;2022-11-20T06:06:00;-1.00;99.90
16643;DHT22;8435;52.184;5.406;2022-11-20T06:08:28;-1.00;99.90
16643;DHT22;8435;52.184;5.406;2022-11-20T06:10:55;-1.00;99.90
16643;DHT22;8435;52.184;5.406;2022-11-20T06:13:22;-1.10;99.90
16643;DHT22;8435;52.184;5.406;2022-11-20T06:15:49;-1.00;99.90
16643;DHT22;8435;52.184;5.406;2022-11-20T06:18:16;-1.10;99.90
16643;DHT22;8435;52.184;5.406;2022-11-20T06:20:43;-1.10;99.90
16643;DHT22;8435;52.184;5.406;2022-11-20T06:23:14;-1.10;99.90
16643;DHT22;8435;52.184;5.406;2022-11-20T06:25:42;-1.10;99.90
16643;DHT22;8435;52.184;5.406;2022-11-20T06:28:09;-1.10;99.90
16643;DHT22;8435;52.184;5.406;2022-11-20T06:30:36;-1.10;99.90
16643;DHT22;8435;52.184;5.406;2022-11-20T06:33:05;-1.10;99.90
16643;DHT22;8435;52.184;5.406;2022-11-20T06:35:35;-1.10;99.90
16643;DHT22;8435;52.184;5.406;2022-11-20T06:38:01;-1.10;99.90
16643;DHT22;8435;52.184;5.406;2022-11-20T06:40:30;-1.10;99.90
16643;DHT22;8435;52.184;5.406;2022-11-20T06:42:56;-1.20;99.90
16643;DHT22;8435;52.184;5.406;2022-11-20T06:45:23;-1.10;99.90
16643;DHT22;8435;52.184;5.406;2022-11-20T06:47:52;-1.10;99.90
16643;DHT22;8435;52.184;5.406;2022-11-20T06:50:19;-1.20;99.90
16643;DHT22;8435;52.184;5.406;2022-11-20T06:52:46;-1.20;99.90
16643;DHT22;8435;52.184;5.406;2022-11-20T06:55:13;-1.20;99.90
16643;DHT22;8435;52.184;5.406;2022-11-20T06:57:41;-1.10;99.90
16643;DHT22;8435;52.184;5.406;2022-11-20T07:00:08;-1.20;99.90
16643;DHT22;8435;52.184;5.406;2022-11-20T07:02:35;-1.20;99.90
16643;DHT22;8435;52.184;5.406;2022-11-20T07:05:02;-1.20;99.90
16643;DHT22;8435;52.184;5.406;2022-11-20T07:07:29;-1.20;99.90
16643;DHT22;8435;52.184;5.406;2022-11-20T07:09:57;-1.20;99.90
16643;DHT22;8435;52.184;5.406;2022-11-20T07:12:24;-1.20;99.90
16643;DHT22;8435;52.184;5.406;2022-11-20T07:14:52;-1.10;99.90
16643;DHT22;8435;52.184;5.406;2022-11-20T07:17:19;-1.10;99.90
16643;DHT22;8435;52.184;5.406;2022-11-20T07:19:46;-1.20;99.90
16643;DHT22;8435;52.184;5.406;2022-11-20T07:22:13;-1.10;99.90
16643;DHT22;8435;52.184;5.406;2022-11-20T07:24:39;-1.10;99.90
16643;DHT22;8435;52.184;5.406;2022-11-20T07:27:09;-1.20;99.90
16643;DHT22;8435;52.184;5.406;2022-11-20T07:29:35;-1.10;99.90
16643;DHT22;8435;52.184;5.406;2022-11-20T07:32:04;-1.20;99.90
16643;DHT22;8435;52.184;5.406;2022-11-20T07:34:31;-1.10;99.90
16643;DHT22;8435;52.184;5.406;2022-11-20T07:36:57;-1.10;99.90
16643;DHT22;8435;52.184;5.406;2022-11-20T07:39:24;-1.10;99.90
16643;DHT22;8435;52.184;5.406;2022-11-20T07:41:51;-1.10;99.90
16643;DHT22;8435;52.184;5.406;2022-11-20T07:44:17;-1.10;99.90
16643;DHT22;8435;52.184;5.406;2022-11-20T07:46:46;-1.10;99.90
16643;DHT22;8435;52.184;5.406;2022-11-20T07:49:14;-1.10;99.90
16643;DHT22;8435;52.184;5.406;2022-11-20T07:51:41;-1.10;99.90
16643;DHT22;8435;52.184;5.406;2022-11-20T07:54:08;-1.00;99.90
16643;DHT22;8435;52.184;5.406;2022-11-20T07:56:34;-1.00;99.90
16643;DHT22;8435;52.184;5.406;2022-11-20T07:59:01;-0.90;99.90
16643;DHT22;8435;52.184;5.406;2022-11-20T08:01:29;-0.90;99.90
16643;DHT22;8435;52.184;5.406;2022-11-20T08:03:56;-0.80;99.90
16643;DHT22;8435;52.184;5.406;2022-11-20T08:06:24;-0.70;99.90
16643;DHT22;8435;52.184;5.406;2022-11-20T08:08:54;-0.60;99.90
16643;DHT22;8435;52.184;5.406;2022-11-20T08:11:20;-0.60;99.90
16643;DHT22;8435;52.184;5.406;2022-11-20T08:14:05;-0.50;99.90
16643;DHT22;8435;52.184;5.406;2022-11-20T08:16:42;-0.40;99.90
16643;DHT22;8435;52.184;5.406;2022-11-20T08:19:09;-0.30;99.90
16643;DHT22;8435;52.184;5.406;2022-11-20T08:21:37;-0.30;99.90
16643;DHT22;8435;52.184;5.406;2022-11-20T08:24:05;-0.20;99.90
16643;DHT22;8435;52.184;5.406;2022-11-20T08:26:32;-0.10;99.90
16643;DHT22;8435;52.184;5.406;2022-11-20T08:28:59;-0.10;99.90
16643;DHT22;8435;52.184;5.406;2022-11-20T08:31:27;0.00;99.90
16643;DHT22;8435;52.184;5.406;2022-11-20T08:33:54;0.10;99.90
16643;DHT22;8435;52.184;5.406;2022-11-20T08:36:21;0.20;99.90
16643;DHT22;8435;52.184;5.406;2022-11-20T08:38:51;0.20;99.90
16643;DHT22;8435;52.184;5.406;2022-11-20T08:41:18;0.20;99.90
16643;DHT22;8435;52.184;5.406;2022-11-20T08:43:54;0.30;99.90
16643;DHT22;8435;52.184;5.406;2022-11-20T08:46:21;0.30;99.90
16643;DHT22;8435;52.184;5.406;2022-11-20T08:48:48;0.40;99.90
16643;DHT22;8435;52.184;5.406;2022-11-20T08:51:16;0.40;99.90
16643;DHT22;8435;52.184;5.406;2022-11-20T08:53:43;0.50;99.90
16643;DHT22;8435;52.184;5.406;2022-11-20T08:56:11;0.50;99.90
16643;DHT22;8435;52.184;5.406;2022-11-20T08:58:38;0.50;99.90
16643;DHT22;8435;52.184;5.406;2022-11-20T09:01:05;0.60;99.90
16643;DHT22;8435;52.184;5.406;2022-11-20T09:03:35;0.60;99.90
16643;DHT22;8435;52.184;5.406;2022-11-20T09:06:04;0.60;99.90
16643;DHT22;8435;52.184;5.406;2022-11-20T09:08:31;0.70;99.90
16643;DHT22;8435;52.184;5.406;2022-11-20T09:10:59;0.70;99.90
16643;DHT22;8435;52.184;5.406;2022-11-20T09:13:28;0.80;99.90
16643;DHT22;8435;52.184;5.406;2022-11-20T09:15:55;0.80;99.90
16643;DHT22;8435;52.184;5.406;2022-11-20T09:18:23;0.90;99.90
16643;DHT22;8435;52.184;5.406;2022-11-20T09:20:50;0.90;99.90
16643;DHT22;8435;52.184;5.406;2022-11-20T09:23:20;1.00;99.90
16643;DHT22;8435;52.184;5.406;2022-11-20T09:25:47;1.10;99.90
16643;DHT22;8435;52.184;5.406;2022-11-20T09:28:14;1.10;99.90
16643;DHT22;8435;52.184;5.406;2022-11-20T09:30:43;1.20;99.90
16643;DHT22;8435;52.184;5.406;2022-11-20T09:33:09;1.20;99.90
16643;DHT22;8435;52.184;5.406;2022-11-20T09:35:39;1.30;99.90
16643;DHT22;8435;52.184;5.406;2022-11-20T09:38:10;1.30;99.90
16643;DHT22;8435;52.184;5.406;2022-11-20T09:40:40;1.40;99.90
16643;DHT22;8435;52.184;5.406;2022-11-20T09:43:13;1.50;99.90
16643;DHT22;8435;52.184;5.406;2022-11-20T09:45:56;1.50;99.90
16643;DHT22;8435;52.184;5.406;2022-11-20T09:48:44;1.60;99.90
16643;DHT22;8435;52.184;5.406;2022-11-20T09:51:23;1.70;99.90
16643;DHT22;8435;52.184;5.406;2022-11-20T09:54:05;1.80;99.90
16643;DHT22;8435;52.184;5.406;2022-11-20T09:56:34;1.80;99.90
16643;DHT22;8435;52.184;5.406;2022-11-20T09:59:05;1.90;99.90
16643;DHT22;8435;52.184;5.406;2022-11-20T10:01:36;1.90;99.90
16643;DHT22;8435;52.184;5.406;2022-11-20T10:04:10;2.00;99.90
16643;DHT22;8435;52.184;5.406;2022-11-20T10:06:44;2.00;99.90
16643;DHT22;8435;52.184;5.406;2022-11-20T10:09:20;2.10;99.90
16643;DHT22;8435;52.184;5.406;2022-11-20T10:11:55;2.20;99.90
16643;DHT22;8435;52.184;5.406;2022-11-20T10:14:32;2.20;99.90
16643;DHT22;8435;52.184;5.406;2022-11-20T10:17:12;2.30;99.90
16643;DHT22;8435;52.184;5.406;2022-11-20T10:19:47;2.30;99.90
16643;DHT22;8435;52.184;5.406;2022-11-20T10:22:26;2.40;99.90
16643;DHT22;8435;52.184;5.406;2022-11-20T10:25:04;2.50;99.90
16643;DHT22;8435;52.184;5.406;2022-11-20T10:27:42;2.50;99.90
16643;DHT22;8435;52.184;5.406;2022-11-20T10:30:13;2.60;99.90
16643;DHT22;8435;52.184;5.406;2022-11-20T10:32:46;2.60;99.90
16643;DHT22;8435;52.184;5.406;2022-11-20T10:35:21;2.70;99.90
16643;DHT22;8435;52.184;5.406;2022-11-20T10:37:52;2.80;99.90
16643;DHT22;8435;52.184;5.406;2022-11-20T10:40:31;2.80;99.90
16643;DHT22;8435;52.184;5.406;2022-11-20T10:43:02;2.90;99.90
16643;DHT22;8435;52.184;5.406;2022-11-20T10:45:42;2.90;99.90
16643;DHT22;8435;52.184;5.406;2022-11-20T10:48:20;3.00;99.90
16643;DHT22;8435;52.184;5.406;2022-11-20T10:51:03;3.00;99.90
16643;DHT22;8435;52.184;5.406;2022-11-20T10:53:45;3.10;99.90
16643;DHT22;8435;52.184;5.406;2022-11-20T10:56:20;3.10;99.90
16643;DHT22;8435;52.184;5.406;2022-11-20T10:59:02;3.20;99.90
16643;DHT22;8435;52.184;5.406;2022-11-20T11:01:29;3.20;99.90
16643;DHT22;8435;52.184;5.406;2022-11-20T11:03:58;3.30;99.90
16643;DHT22;8435;52.184;5.406;2022-11-20T11:06:29;3.30;99.90
16643;DHT22;8435;52.184;5.406;2022-11-20T11:09:02;3.40;99.90
16643;DHT22;8435;52.184;5.406;2022-11-20T11:11:32;3.40;99.90
16643;DHT22;8435;52.184;5.406;2022-11-20T11:14:06;3.50;99.90
16643;DHT22;8435;52.184;5.406;2022-11-20T11:16:33;3.50;99.90
16643;DHT22;8435;52.184;5.406;2022-11-20T11:19:05;3.50;99.90
16643;DHT22;8435;52.184;5.406;2022-11-20T11:21:32;3.60;99.90
16643;DHT22;8435;52.184;5.406;2022-11-20T11:24:01;3.60;99.90
16643;DHT22;8435;52.184;5.406;2022-11-20T11:26:29;3.60;99.90
16643;DHT22;8435;52.184;5.406;2022-11-20T11:28:56;3.70;99.90
16643;DHT22;8435;52.184;5.406;2022-11-20T11:31:25;3.70;99.90
16643;DHT22;8435;52.184;5.406;2022-11-20T11:34:05;3.80;99.90
16643;DHT22;8435;52.184;5.406;2022-11-20T11:36:33;3.80;99.90
16643;DHT22;8435;52.184;5.406;2022-11-20T11:39:02;3.90;99.90
16643;DHT22;8435;52.184;5.406;2022-11-20T11:41:31;3.90;99.90
16643;DHT22;8435;52.184;5.406;2022-11-20T11:44:03;4.00;99.90
16643;DHT22;8435;52.184;5.406;2022-11-20T11:46:58;4.00;99.90
16643;DHT22;8435;52.184;5.406;2022-11-20T11:49:26;4.10;99.90
16643;DHT22;8435;52.184;5.406;2022-11-20T11:52:00;4.10;99.90
16643;DHT22;8435;52.184;5.406;2022-11-20T11:54:32;4.10;99.90
16643;DHT22;8435;52.184;5.406;2022-11-20T11:57:05;4.20;99.90
16643;DHT22;8435;52.184;5.406;2022-11-20T11:59:44;4.20;99.90
16643;DHT22;8435;52.184;5.406;2022-11-20T12:02:22;4.20;99.90
16643;DHT22;8435;52.184;5.406;2022-11-20T12:04:57;4.20;99.90
16643;DHT22;8435;52.184;5.406;2022-11-20T12:07:36;4.30;99.90
16643;DHT22;8435;52.184;5.406;2022-11-20T12:10:08;4.30;99.90
16643;DHT22;8435;52.184;5.406;2022-11-20T12:12:41;4.30;99.90
16643;DHT22;8435;52.184;5.406;2022-11-20T12:15:12;4.40;99.90
16643;DHT22;8435;52.184;5.406;2022-11-20T12:17:39;4.40;99.90
16643;DHT22;8435;52.184;5.406;2022-11-20T12:20:12;4.40;99.90
16643;DHT22;8435;52.184;5.406;2022-11-20T12:22:46;4.40;99.90
16643;DHT22;8435;52.184;5.406;2022-11-20T12:25:19;4.50;99.90
16643;DHT22;8435;52.184;5.406;2022-11-20T12:28:03;4.50;99.90
16643;DHT22;8435;52.184;5.406;2022-11-20T12:30:41;4.50;99.90
16643;DHT22;8435;52.184;5.406;2022-11-20T12:33:35;4.60;99.90
16643;DHT22;8435;52.184;5.406;2022-11-20T12:36:16;4.60;99.90
16643;DHT22;8435;52.184;5.406;2022-11-20T12:45:44;4.80;99.90
16643;DHT22;8435;52.184;5.406;2022-11-20T12:48:32;4.80;99.90
16643;DHT22;8435;52.184;5.406;2022-11-20T12:51:24;4.80;99.90
16643;DHT22;8435;52.184;5.406;2022-11-20T12:54:06;4.90;99.90
16643;DHT22;8435;52.184;5.406;2022-11-20T12:56:40;4.90;99.90
16643;DHT22;8435;52.184;5.406;2022-11-20T12:59:24;4.90;99.90
16643;DHT22;8435;52.184;5.406;2022-11-20T13:02:07;4.90;99.90
16643;DHT22;8435;52.184;5.406;2022-11-20T13:04:59;4.90;99.90
16643;DHT22;8435;52.184;5.406;2022-11-20T13:07:33;5.00;99.90
16643;DHT22;8435;52.184;5.406;2022-11-20T13:10:01;5.00;99.90
16643;DHT22;8435;52.184;5.406;2022-11-20T13:12:33;5.00;99.90
16643;DHT22;8435;52.184;5.406;2022-11-20T13:15:08;5.00;99.90
16643;DHT22;8435;52.184;5.406;2022-11-20T13:17:43;5.00;99.90
16643;DHT22;8435;52.184;5.406;2022-11-20T13:20:14;5.00;99.90
16643;DHT22;8435;52.184;5.406;2022-11-20T13:22:48;5.00;99.90
16643;DHT22;8435;52.184;5.406;2022-11-20T13:25:23;5.00;99.90
16643;DHT22;8435;52.184;5.406;2022-11-20T13:27:50;5.00;99.90
16643;DHT22;8435;52.184;5.406;2022-11-20T13:30:19;5.00;99.90
16643;DHT22;8435;52.184;5.406;2022-11-20T13:32:51;5.00;99.90
16643;DHT22;8435;52.184;5.406;2022-11-20T13:35:27;5.00;99.90
16643;DHT22;8435;52.184;5.406;2022-11-20T13:38:07;5.00;99.90
16643;DHT22;8435;52.184;5.406;2022-11-20T13:40:37;5.00;99.90
16643;DHT22;8435;52.184;5.406;2022-11-20T13:43:15;5.00;99.90
16643;DHT22;8435;52.184;5.406;2022-11-20T13:45:54;5.10;99.90
16643;DHT22;8435;52.184;5.406;2022-11-20T13:48:24;5.10;99.90
16643;DHT22;8435;52.184;5.406;2022-11-20T13:51:03;5.10;99.90
16643;DHT22;8435;52.184;5.406;2022-11-20T13:53:46;5.10;99.90
16643;DHT22;8435;52.184;5.406;2022-11-20T13:56:22;5.10;99.90
16643;DHT22;8435;52.184;5.406;2022-11-20T13:59:02;5.10;99.90
16643;DHT22;8435;52.184;5.406;2022-11-20T14:01:32;5.10;99.90
16643;DHT22;8435;52.184;5.406;2022-11-20T14:04:01;5.10;99.90
16643;DHT22;8435;52.184;5.406;2022-11-20T14:06:39;5.00;99.90
16643;DHT22;8435;52.184;5.406;2022-11-20T14:09:12;5.00;99.90
16643;DHT22;8435;52.184;5.406;2022-11-20T14:11:46;5.00;99.90
16643;DHT22;8435;52.184;5.406;2022-11-20T14:14:15;5.10;99.90
16643;DHT22;8435;52.184;5.406;2022-11-20T14:16:43;5.10;99.90
16643;DHT22;8435;52.184;5.406;2022-11-20T14:19:29;5.10;99.90
16643;DHT22;8435;52.184;5.406;2022-11-20T14:22:18;5.10;99.90
16643;DHT22;8435;52.184;5.406;2022-11-20T14:24:47;5.10;99.90
16643;DHT22;8435;52.184;5.406;2022-11-20T14:27:15;5.10;99.90
16643;DHT22;8435;52.184;5.406;2022-11-20T14:29:44;5.10;99.90
16643;DHT22;8435;52.184;5.406;2022-11-20T14:32:11;5.10;99.90
16643;DHT22;8435;52.184;5.406;2022-11-20T14:34:41;5.10;99.90
16643;DHT22;8435;52.184;5.406;2022-11-20T14:37:12;5.10;99.90
16643;DHT22;8435;52.184;5.406;2022-11-20T14:39:42;5.10;99.90
16643;DHT22;8435;52.184;5.406;2022-11-20T14:42:18;5.10;99.90
16643;DHT22;8435;52.184;5.406;2022-11-20T14:44:48;5.10;99.90
16643;DHT22;8435;52.184;5.406;2022-11-20T14:47:20;5.10;99.90
16643;DHT22;8435;52.184;5.406;2022-11-20T14:49:48;5.10;99.90
16643;DHT22;8435;52.184;5.406;2022-11-20T14:52:17;5.10;99.90
16643;DHT22;8435;52.184;5.406;2022-11-20T14:54:45;5.10;99.90
16643;DHT22;8435;52.184;5.406;2022-11-20T14:57:28;5.10;99.90
16643;DHT22;8435;52.184;5.406;2022-11-20T15:00:07;5.10;99.90
16643;DHT22;8435;52.184;5.406;2022-11-20T15:02:34;5.10;99.90
16643;DHT22;8435;52.184;5.406;2022-11-20T15:05:04;5.10;99.90
16643;DHT22;8435;52.184;5.406;2022-11-20T15:07:32;5.10;99.90
16643;DHT22;8435;52.184;5.406;2022-11-20T15:10:02;5.10;99.90
16643;DHT22;8435;52.184;5.406;2022-11-20T15:12:31;5.10;99.90
16643;DHT22;8435;52.184;5.406;2022-11-20T15:14:59;5.20;99.90
16643;DHT22;8435;52.184;5.406;2022-11-20T15:17:25;5.20;99.90
16643;DHT22;8435;52.184;5.406;2022-11-20T15:19:54;5.20;99.90
16643;DHT22;8435;52.184;5.406;2022-11-20T15:22:21;5.20;99.90
16643;DHT22;8435;52.184;5.406;2022-11-20T15:24:50;5.20;99.90
16643;DHT22;8435;52.184;5.406;2022-11-20T15:27:17;5.20;99.90
16643;DHT22;8435;52.184;5.406;2022-11-20T15:29:47;5.20;99.90
16643;DHT22;8435;52.184;5.406;2022-11-20T15:32:13;5.20;99.90
16643;DHT22;8435;52.184;5.406;2022-11-20T15:34:40;5.20;99.90
16643;DHT22;8435;52.184;5.406;2022-11-20T15:37:07;5.20;99.90
16643;DHT22;8435;52.184;5.406;2022-11-20T15:39:34;5.20;99.90
16643;DHT22;8435;52.184;5.406;2022-11-20T15:42:01;5.20;99.90
16643;DHT22;8435;52.184;5.406;2022-11-20T15:44:28;5.20;99.90
16643;DHT22;8435;52.184;5.406;2022-11-20T15:46:56;5.20;99.90
16643;DHT22;8435;52.184;5.406;2022-11-20T15:49:23;5.20;99.90
16643;DHT22;8435;52.184;5.406;2022-11-20T15:51:50;5.10;99.90
16643;DHT22;8435;52.184;5.406;2022-11-20T15:54:20;5.20;99.90
16643;DHT22;8435;52.184;5.406;2022-11-20T15:56:48;5.10;99.90
16643;DHT22;8435;52.184;5.406;2022-11-20T15:59:17;5.10;99.90
16643;DHT22;8435;52.184;5.406;2022-11-20T16:01:44;5.10;99.90
16643;DHT22;8435;52.184;5.406;2022-11-20T16:04:14;5.10;99.90
16643;DHT22;8435;52.184;5.406;2022-11-20T16:06:41;5.10;99.90
16643;DHT22;8435;52.184;5.406;2022-11-20T16:09:08;5.10;99.90
16643;DHT22;8435;52.184;5.406;2022-11-20T16:11:35;5.10;99.90
16643;DHT22;8435;52.184;5.406;2022-11-20T16:14:02;5.10;99.90
16643;DHT22;8435;52.184;5.406;2022-11-20T16:16:47;5.10;99.90
16643;DHT22;8435;52.184;5.406;2022-11-20T16:19:15;5.10;99.90
16643;DHT22;8435;52.184;5.406;2022-11-20T16:21:45;5.10;99.90
16643;DHT22;8435;52.184;5.406;2022-11-20T16:24:13;5.10;99.90